CYHK

Gjoa Haven Airport

Gjoa Haven, Canada
METAR CYHK 231400Z AUTO 20020G26KT 1SM HZ BKN003 M36/M40 A2943 RMK SLP976
Observed Flight Rules
Feb-23 @ 14:00 UTC (35 minutes ago) Instrument Flight Rules
Wind Visibility Clouds Conditions
200° at 20 knots
 Gusting to 26 knots
1 miles
  • Broken at 300' AGL
  • Haze
Temperatures Readings
Current -36°C / -33°F
Dewpoint -40°C / -40°F
Humidity 66%
Altimeter 29.43" Hg
Pressure 997.6 hPa
Elevation 46
METAR CYHK 231400Z AUTO 20020G26KT 1SM HZ BKN003 M36/M40 A2943 RMK SLP976
Observed Flight Rules
Feb-23 @ 14:00 UTC
(35 minutes ago)
LIFR
Wind Visibility
200° at 20 knots
 Gusting to 26 knots
1 miles
Clouds
  • Broken at 300' AGL
Conditions
  • Haze
Temperature Dewpoint
-36°C / -33°F -40°C / -40°F
Humidity Altimeter Pressure
66% 29.43" Hg 997.6 hPa